sensor_id;sensor_type;location;lat;lon;timestamp;P1;durP1;ratioP1;P2;durP2;ratioP2
48881;SDS011;57063;51.406;-2.402;2023-03-17T00:00:11;9.07;;;4.47;;
48881;SDS011;57063;51.406;-2.402;2023-03-17T00:02:39;11.40;;;4.38;;
48881;SDS011;57063;51.406;-2.402;2023-03-17T00:05:13;11.52;;;4.32;;
48881;SDS011;57063;51.406;-2.402;2023-03-17T00:07:40;17.33;;;4.85;;
48881;SDS011;57063;51.406;-2.402;2023-03-17T00:10:09;18.38;;;5.57;;
48881;SDS011;57063;51.406;-2.402;2023-03-17T00:12:37;15.52;;;4.78;;
48881;SDS011;57063;51.406;-2.402;2023-03-17T00:15:03;17.48;;;4.95;;
48881;SDS011;57063;51.406;-2.402;2023-03-17T00:17:29;15.38;;;4.80;;
48881;SDS011;57063;51.406;-2.402;2023-03-17T00:19:55;12.63;;;4.65;;
48881;SDS011;57063;51.406;-2.402;2023-03-17T00:22:20;15.68;;;5.00;;
48881;SDS011;57063;51.406;-2.402;2023-03-17T00:24:46;9.32;;;4.50;;
48881;SDS011;57063;51.406;-2.402;2023-03-17T00:27:12;16.33;;;4.90;;
48881;SDS011;57063;51.406;-2.402;2023-03-17T00:29:38;14.88;;;5.03;;
48881;SDS011;57063;51.406;-2.402;2023-03-17T00:32:05;20.83;;;5.00;;
48881;SDS011;57063;51.406;-2.402;2023-03-17T00:34:39;23.08;;;5.20;;
48881;SDS011;57063;51.406;-2.402;2023-03-17T00:37:07;13.85;;;4.43;;
48881;SDS011;57063;51.406;-2.402;2023-03-17T00:39:35;16.73;;;4.35;;
48881;SDS011;57063;51.406;-2.402;2023-03-17T00:42:01;15.90;;;4.70;;
48881;SDS011;57063;51.406;-2.402;2023-03-17T00:44:26;17.63;;;4.53;;
48881;SDS011;57063;51.406;-2.402;2023-03-17T00:46:52;21.75;;;5.22;;
48881;SDS011;57063;51.406;-2.402;2023-03-17T00:49:19;13.48;;;5.60;;
48881;SDS011;57063;51.406;-2.402;2023-03-17T00:51:46;15.90;;;4.50;;
48881;SDS011;57063;51.406;-2.402;2023-03-17T00:54:12;22.38;;;5.97;;
48881;SDS011;57063;51.406;-2.402;2023-03-17T00:56:38;15.20;;;4.53;;
48881;SDS011;57063;51.406;-2.402;2023-03-17T01:02:01;19.52;;;5.45;;
48881;SDS011;57063;51.406;-2.402;2023-03-17T01:04:26;20.83;;;5.28;;
48881;SDS011;57063;51.406;-2.402;2023-03-17T01:06:51;17.38;;;5.53;;
48881;SDS011;57063;51.406;-2.402;2023-03-17T01:09:18;24.73;;;6.32;;
48881;SDS011;57063;51.406;-2.402;2023-03-17T01:11:47;9.63;;;4.18;;
48881;SDS011;57063;51.406;-2.402;2023-03-17T01:14:13;17.77;;;4.47;;
48881;SDS011;57063;51.406;-2.402;2023-03-17T01:16:39;18.50;;;4.43;;
48881;SDS011;57063;51.406;-2.402;2023-03-17T01:19:05;13.70;;;4.65;;
48881;SDS011;57063;51.406;-2.402;2023-03-17T01:21:30;14.45;;;4.85;;
48881;SDS011;57063;51.406;-2.402;2023-03-17T01:23:56;14.23;;;4.65;;
48881;SDS011;57063;51.406;-2.402;2023-03-17T01:26:21;11.05;;;3.35;;
48881;SDS011;57063;51.406;-2.402;2023-03-17T01:28:47;12.45;;;4.10;;
48881;SDS011;57063;51.406;-2.402;2023-03-17T01:31:13;13.63;;;4.47;;
48881;SDS011;57063;51.406;-2.402;2023-03-17T01:33:38;15.45;;;4.00;;
48881;SDS011;57063;51.406;-2.402;2023-03-17T01:36:04;12.40;;;4.22;;
48881;SDS011;57063;51.406;-2.402;2023-03-17T01:38:30;14.18;;;4.40;;
48881;SDS011;57063;51.406;-2.402;2023-03-17T01:40:56;13.40;;;4.38;;
48881;SDS011;57063;51.406;-2.402;2023-03-17T01:43:23;13.63;;;5.07;;
48881;SDS011;57063;51.406;-2.402;2023-03-17T01:51:47;10.65;;;4.22;;
48881;SDS011;57063;51.406;-2.402;2023-03-17T01:54:34;13.02;;;4.43;;
48881;SDS011;57063;51.406;-2.402;2023-03-17T01:57:18;9.35;;;3.60;;
48881;SDS011;57063;51.406;-2.402;2023-03-17T02:00:24;13.10;;;4.20;;
48881;SDS011;57063;51.406;-2.402;2023-03-17T02:02:44;12.32;;;4.30;;
48881;SDS011;57063;51.406;-2.402;2023-03-17T02:05:13;9.85;;;4.32;;
48881;SDS011;57063;51.406;-2.402;2023-03-17T02:07:41;12.10;;;4.85;;
48881;SDS011;57063;51.406;-2.402;2023-03-17T02:10:09;11.13;;;3.83;;
48881;SDS011;57063;51.406;-2.402;2023-03-17T02:12:37;12.50;;;3.83;;
48881;SDS011;57063;51.406;-2.402;2023-03-17T02:15:04;9.05;;;4.18;;
48881;SDS011;57063;51.406;-2.402;2023-03-17T02:17:30;8.50;;;4.18;;
48881;SDS011;57063;51.406;-2.402;2023-03-17T02:19:56;11.65;;;3.35;;
48881;SDS011;57063;51.406;-2.402;2023-03-17T02:22:35;13.55;;;3.47;;
48881;SDS011;57063;51.406;-2.402;2023-03-17T02:25:04;6.60;;;3.25;;
48881;SDS011;57063;51.406;-2.402;2023-03-17T02:27:47;7.40;;;3.08;;
48881;SDS011;57063;51.406;-2.402;2023-03-17T02:33:33;11.98;;;3.78;;
48881;SDS011;57063;51.406;-2.402;2023-03-17T02:36:10;7.72;;;3.28;;
48881;SDS011;57063;51.406;-2.402;2023-03-17T02:38:35;8.38;;;4.03;;
48881;SDS011;57063;51.406;-2.402;2023-03-17T02:41:06;8.98;;;3.80;;
48881;SDS011;57063;51.406;-2.402;2023-03-17T02:43:34;11.60;;;3.60;;
48881;SDS011;57063;51.406;-2.402;2023-03-17T02:46:10;12.70;;;3.67;;
48881;SDS011;57063;51.406;-2.402;2023-03-17T02:49:14;10.93;;;3.65;;
48881;SDS011;57063;51.406;-2.402;2023-03-17T02:52:01;8.38;;;3.42;;
48881;SDS011;57063;51.406;-2.402;2023-03-17T02:57:14;8.15;;;2.95;;
48881;SDS011;57063;51.406;-2.402;2023-03-17T02:59:48;9.43;;;3.35;;
48881;SDS011;57063;51.406;-2.402;2023-03-17T03:02:26;8.77;;;2.63;;
48881;SDS011;57063;51.406;-2.402;2023-03-17T03:05:19;8.38;;;2.75;;
48881;SDS011;57063;51.406;-2.402;2023-03-17T03:07:59;8.20;;;2.72;;
48881;SDS011;57063;51.406;-2.402;2023-03-17T03:10:41;8.82;;;2.33;;
48881;SDS011;57063;51.406;-2.402;2023-03-17T03:13:19;8.60;;;2.33;;
48881;SDS011;57063;51.406;-2.402;2023-03-17T03:15:48;11.50;;;2.40;;
48881;SDS011;57063;51.406;-2.402;2023-03-17T03:20:58;13.90;;;2.38;;
48881;SDS011;57063;51.406;-2.402;2023-03-17T03:23:48;13.15;;;2.22;;
48881;SDS011;57063;51.406;-2.402;2023-03-17T03:29:56;11.50;;;2.45;;
48881;SDS011;57063;51.406;-2.402;2023-03-17T03:32:38;5.57;;;2.08;;
48881;SDS011;57063;51.406;-2.402;2023-03-17T03:35:09;12.93;;;2.80;;
48881;SDS011;57063;51.406;-2.402;2023-03-17T03:38:01;4.70;;;2.17;;
48881;SDS011;57063;51.406;-2.402;2023-03-17T03:40:40;7.97;;;1.98;;
48881;SDS011;57063;51.406;-2.402;2023-03-17T03:43:31;13.90;;;2.67;;
48881;SDS011;57063;51.406;-2.402;2023-03-17T03:46:17;15.20;;;4.25;;
48881;SDS011;57063;51.406;-2.402;2023-03-17T03:49:08;12.73;;;3.03;;
48881;SDS011;57063;51.406;-2.402;2023-03-17T03:51:59;7.50;;;2.47;;
48881;SDS011;57063;51.406;-2.402;2023-03-17T03:54:55;11.52;;;2.55;;
48881;SDS011;57063;51.406;-2.402;2023-03-17T04:04:10;8.73;;;3.35;;
48881;SDS011;57063;51.406;-2.402;2023-03-17T04:10:07;14.40;;;2.92;;
48881;SDS011;57063;51.406;-2.402;2023-03-17T04:12:52;11.48;;;2.60;;
48881;SDS011;57063;51.406;-2.402;2023-03-17T04:19:08;9.57;;;2.58;;
48881;SDS011;57063;51.406;-2.402;2023-03-17T04:21:51;13.52;;;2.63;;
48881;SDS011;57063;51.406;-2.402;2023-03-17T04:24:21;11.68;;;2.72;;
48881;SDS011;57063;51.406;-2.402;2023-03-17T04:26:47;16.20;;;2.80;;
48881;SDS011;57063;51.406;-2.402;2023-03-17T04:29:22;15.63;;;3.72;;
48881;SDS011;57063;51.406;-2.402;2023-03-17T04:31:48;18.00;;;2.70;;
48881;SDS011;57063;51.406;-2.402;2023-03-17T04:34:16;17.58;;;3.78;;
48881;SDS011;57063;51.406;-2.402;2023-03-17T04:36:43;20.67;;;3.33;;
48881;SDS011;57063;51.406;-2.402;2023-03-17T04:39:10;14.15;;;3.35;;
48881;SDS011;57063;51.406;-2.402;2023-03-17T04:41:39;22.92;;;3.90;;
48881;SDS011;57063;51.406;-2.402;2023-03-17T04:44:07;9.60;;;3.13;;
48881;SDS011;57063;51.406;-2.402;2023-03-17T04:46:35;18.35;;;3.22;;
48881;SDS011;57063;51.406;-2.402;2023-03-17T04:49:06;16.00;;;2.75;;
48881;SDS011;57063;51.406;-2.402;2023-03-17T04:51:32;21.90;;;3.83;;
48881;SDS011;57063;51.406;-2.402;2023-03-17T04:54:09;21.52;;;3.45;;
48881;SDS011;57063;51.406;-2.402;2023-03-17T04:56:39;18.98;;;3.10;;
48881;SDS011;57063;51.406;-2.402;2023-03-17T04:59:20;17.48;;;4.32;;
48881;SDS011;57063;51.406;-2.402;2023-03-17T05:01:46;23.85;;;4.03;;
48881;SDS011;57063;51.406;-2.402;2023-03-17T05:04:11;27.95;;;4.07;;
48881;SDS011;57063;51.406;-2.402;2023-03-17T05:06:37;27.10;;;3.55;;
48881;SDS011;57063;51.406;-2.402;2023-03-17T05:09:02;16.45;;;3.42;;
48881;SDS011;57063;51.406;-2.402;2023-03-17T05:11:28;14.57;;;2.97;;
48881;SDS011;57063;51.406;-2.402;2023-03-17T05:13:53;10.38;;;2.40;;
48881;SDS011;57063;51.406;-2.402;2023-03-17T05:16:19;15.32;;;2.88;;
48881;SDS011;57063;51.406;-2.402;2023-03-17T05:18:44;18.95;;;4.05;;
48881;SDS011;57063;51.406;-2.402;2023-03-17T05:21:10;18.20;;;3.78;;
48881;SDS011;57063;51.406;-2.402;2023-03-17T05:23:36;28.35;;;5.20;;
48881;SDS011;57063;51.406;-2.402;2023-03-17T05:26:02;25.02;;;4.32;;
48881;SDS011;57063;51.406;-2.402;2023-03-17T05:28:27;18.52;;;4.40;;
48881;SDS011;57063;51.406;-2.402;2023-03-17T05:30:53;35.17;;;4.55;;
48881;SDS011;57063;51.406;-2.402;2023-03-17T05:33:19;29.83;;;4.05;;
48881;SDS011;57063;51.406;-2.402;2023-03-17T05:35:45;27.52;;;4.20;;
48881;SDS011;57063;51.406;-2.402;2023-03-17T05:38:12;17.02;;;3.90;;
48881;SDS011;57063;51.406;-2.402;2023-03-17T05:40:39;32.38;;;4.40;;
48881;SDS011;57063;51.406;-2.402;2023-03-17T05:43:05;21.52;;;4.00;;
48881;SDS011;57063;51.406;-2.402;2023-03-17T05:45:31;16.83;;;4.05;;
48881;SDS011;57063;51.406;-2.402;2023-03-17T05:47:57;12.27;;;3.58;;
48881;SDS011;57063;51.406;-2.402;2023-03-17T05:50:23;11.93;;;2.92;;
48881;SDS011;57063;51.406;-2.402;2023-03-17T05:52:48;11.57;;;2.83;;
48881;SDS011;57063;51.406;-2.402;2023-03-17T05:55:16;9.18;;;2.95;;
48881;SDS011;57063;51.406;-2.402;2023-03-17T05:57:42;9.23;;;2.90;;
48881;SDS011;57063;51.406;-2.402;2023-03-17T06:00:07;15.77;;;3.80;;
48881;SDS011;57063;51.406;-2.402;2023-03-17T06:02:34;15.45;;;3.67;;
48881;SDS011;57063;51.406;-2.402;2023-03-17T06:04:59;21.00;;;3.67;;
48881;SDS011;57063;51.406;-2.402;2023-03-17T06:07:26;16.60;;;4.57;;
48881;SDS011;57063;51.406;-2.402;2023-03-17T06:09:51;34.58;;;4.53;;
48881;SDS011;57063;51.406;-2.402;2023-03-17T06:12:17;16.90;;;4.28;;
48881;SDS011;57063;51.406;-2.402;2023-03-17T06:14:42;13.70;;;3.72;;
48881;SDS011;57063;51.406;-2.402;2023-03-17T06:17:07;17.10;;;4.63;;
48881;SDS011;57063;51.406;-2.402;2023-03-17T06:19:33;20.27;;;4.78;;
48881;SDS011;57063;51.406;-2.402;2023-03-17T06:21:58;28.95;;;4.72;;
48881;SDS011;57063;51.406;-2.402;2023-03-17T06:24:24;24.20;;;4.82;;
48881;SDS011;57063;51.406;-2.402;2023-03-17T06:26:50;15.23;;;4.65;;
48881;SDS011;57063;51.406;-2.402;2023-03-17T06:29:16;20.15;;;4.65;;
48881;SDS011;57063;51.406;-2.402;2023-03-17T06:31:42;32.60;;;6.43;;
48881;SDS011;57063;51.406;-2.402;2023-03-17T06:34:14;32.10;;;5.72;;
48881;SDS011;57063;51.406;-2.402;2023-03-17T06:36:40;18.58;;;5.28;;
48881;SDS011;57063;51.406;-2.402;2023-03-17T06:39:06;29.65;;;6.00;;
48881;SDS011;57063;51.406;-2.402;2023-03-17T06:41:31;24.65;;;5.78;;
48881;SDS011;57063;51.406;-2.402;2023-03-17T06:43:56;31.75;;;6.20;;
48881;SDS011;57063;51.406;-2.402;2023-03-17T06:46:22;29.58;;;6.45;;
48881;SDS011;57063;51.406;-2.402;2023-03-17T06:48:47;32.30;;;6.75;;
48881;SDS011;57063;51.406;-2.402;2023-03-17T06:51:13;34.83;;;7.40;;
48881;SDS011;57063;51.406;-2.402;2023-03-17T06:53:38;24.17;;;7.68;;
48881;SDS011;57063;51.406;-2.402;2023-03-17T06:56:03;29.63;;;6.80;;
48881;SDS011;57063;51.406;-2.402;2023-03-17T06:58:30;21.92;;;6.32;;
48881;SDS011;57063;51.406;-2.402;2023-03-17T07:00:59;21.23;;;6.57;;
48881;SDS011;57063;51.406;-2.402;2023-03-17T07:03:26;26.25;;;7.45;;
48881;SDS011;57063;51.406;-2.402;2023-03-17T07:05:52;33.50;;;7.93;;
48881;SDS011;57063;51.406;-2.402;2023-03-17T07:08:21;30.95;;;7.20;;
48881;SDS011;57063;51.406;-2.402;2023-03-17T07:10:47;27.55;;;7.70;;
48881;SDS011;57063;51.406;-2.402;2023-03-17T07:13:13;32.63;;;7.63;;
48881;SDS011;57063;51.406;-2.402;2023-03-17T07:15:38;35.25;;;7.65;;
48881;SDS011;57063;51.406;-2.402;2023-03-17T07:18:04;27.80;;;7.07;;
48881;SDS011;57063;51.406;-2.402;2023-03-17T07:20:31;30.58;;;8.15;;
48881;SDS011;57063;51.406;-2.402;2023-03-17T07:22:56;26.60;;;9.10;;
48881;SDS011;57063;51.406;-2.402;2023-03-17T07:25:22;28.52;;;9.95;;
48881;SDS011;57063;51.406;-2.402;2023-03-17T07:27:48;30.58;;;9.75;;
48881;SDS011;57063;51.406;-2.402;2023-03-17T07:30:13;27.65;;;7.75;;
48881;SDS011;57063;51.406;-2.402;2023-03-17T07:32:43;28.33;;;8.63;;
48881;SDS011;57063;51.406;-2.402;2023-03-17T07:35:11;30.63;;;8.95;;
48881;SDS011;57063;51.406;-2.402;2023-03-17T07:37:38;33.78;;;10.48;;
48881;SDS011;57063;51.406;-2.402;2023-03-17T07:40:04;29.95;;;9.35;;
48881;SDS011;57063;51.406;-2.402;2023-03-17T07:42:30;24.35;;;8.90;;
48881;SDS011;57063;51.406;-2.402;2023-03-17T07:44:56;33.08;;;10.38;;
48881;SDS011;57063;51.406;-2.402;2023-03-17T07:47:21;28.98;;;9.00;;
48881;SDS011;57063;51.406;-2.402;2023-03-17T07:49:47;23.25;;;9.07;;
48881;SDS011;57063;51.406;-2.402;2023-03-17T07:52:12;22.92;;;8.43;;
48881;SDS011;57063;51.406;-2.402;2023-03-17T07:54:38;20.55;;;7.50;;
48881;SDS011;57063;51.406;-2.402;2023-03-17T07:57:05;17.42;;;7.32;;
48881;SDS011;57063;51.406;-2.402;2023-03-17T07:59:30;27.27;;;7.57;;
48881;SDS011;57063;51.406;-2.402;2023-03-17T08:01:56;20.05;;;6.53;;
48881;SDS011;57063;51.406;-2.402;2023-03-17T08:04:23;31.48;;;7.10;;
48881;SDS011;57063;51.406;-2.402;2023-03-17T08:06:49;34.78;;;7.78;;
48881;SDS011;57063;51.406;-2.402;2023-03-17T08:09:14;22.00;;;6.10;;
48881;SDS011;57063;51.406;-2.402;2023-03-17T08:11:40;21.10;;;6.50;;
48881;SDS011;57063;51.406;-2.402;2023-03-17T08:14:06;20.10;;;6.68;;
48881;SDS011;57063;51.406;-2.402;2023-03-17T08:16:31;17.73;;;6.55;;
48881;SDS011;57063;51.406;-2.402;2023-03-17T08:19:00;17.45;;;5.78;;
48881;SDS011;57063;51.406;-2.402;2023-03-17T08:21:27;21.02;;;5.40;;
48881;SDS011;57063;51.406;-2.402;2023-03-17T08:23:54;18.23;;;5.88;;
48881;SDS011;57063;51.406;-2.402;2023-03-17T08:26:19;22.55;;;5.55;;
48881;SDS011;57063;51.406;-2.402;2023-03-17T08:28:46;13.45;;;5.18;;
48881;SDS011;57063;51.406;-2.402;2023-03-17T08:31:13;22.75;;;5.50;;
48881;SDS011;57063;51.406;-2.402;2023-03-17T08:33:42;19.88;;;6.25;;
48881;SDS011;57063;51.406;-2.402;2023-03-17T08:36:11;16.48;;;4.57;;
48881;SDS011;57063;51.406;-2.402;2023-03-17T08:38:39;22.02;;;4.82;;
48881;SDS011;57063;51.406;-2.402;2023-03-17T08:41:10;19.70;;;5.00;;
48881;SDS011;57063;51.406;-2.402;2023-03-17T08:43:38;18.92;;;4.47;;
48881;SDS011;57063;51.406;-2.402;2023-03-17T08:46:05;17.77;;;4.72;;
48881;SDS011;57063;51.406;-2.402;2023-03-17T08:48:42;22.55;;;5.28;;
48881;SDS011;57063;51.406;-2.402;2023-03-17T08:51:09;16.98;;;4.72;;
48881;SDS011;57063;51.406;-2.402;2023-03-17T08:53:35;17.00;;;4.82;;
48881;SDS011;57063;51.406;-2.402;2023-03-17T08:56:01;20.45;;;4.28;;
48881;SDS011;57063;51.406;-2.402;2023-03-17T08:58:29;17.17;;;4.82;;
48881;SDS011;57063;51.406;-2.402;2023-03-17T09:01:03;21.75;;;4.43;;
48881;SDS011;57063;51.406;-2.402;2023-03-17T09:03:35;17.20;;;3.47;;
48881;SDS011;57063;51.406;-2.402;2023-03-17T09:06:05;10.98;;;3.72;;
48881;SDS011;57063;51.406;-2.402;2023-03-17T09:08:34;14.57;;;3.10;;
48881;SDS011;57063;51.406;-2.402;2023-03-17T09:14:27;18.83;;;3.78;;
48881;SDS011;57063;51.406;-2.402;2023-03-17T09:22:02;14.60;;;3.42;;
48881;SDS011;57063;51.406;-2.402;2023-03-17T11:47:33;11.10;;;2.20;;
48881;SDS011;57063;51.406;-2.402;2023-03-17T16:05:45;19.02;;;2.60;;
48881;SDS011;57063;51.406;-2.402;2023-03-17T17:03:34;13.80;;;2.50;;
48881;SDS011;57063;51.406;-2.402;2023-03-17T17:06:11;19.85;;;3.03;;
48881;SDS011;57063;51.406;-2.402;2023-03-17T17:11:31;21.38;;;2.90;;
48881;SDS011;57063;51.406;-2.402;2023-03-17T17:13:57;20.70;;;2.58;;
48881;SDS011;57063;51.406;-2.402;2023-03-17T17:16:29;13.00;;;2.10;;
48881;SDS011;57063;51.406;-2.402;2023-03-17T17:19:22;20.80;;;3.17;;
48881;SDS011;57063;51.406;-2.402;2023-03-17T17:21:48;13.43;;;2.38;;
48881;SDS011;57063;51.406;-2.402;2023-03-17T17:24:17;13.88;;;2.28;;
48881;SDS011;57063;51.406;-2.402;2023-03-17T17:26:42;16.33;;;3.22;;
48881;SDS011;57063;51.406;-2.402;2023-03-17T17:29:08;15.95;;;3.25;;
48881;SDS011;57063;51.406;-2.402;2023-03-17T17:31:34;17.90;;;3.10;;
48881;SDS011;57063;51.406;-2.402;2023-03-17T17:34:02;16.55;;;3.08;;
48881;SDS011;57063;51.406;-2.402;2023-03-17T17:36:28;22.33;;;4.03;;
48881;SDS011;57063;51.406;-2.402;2023-03-17T17:39:02;24.10;;;4.22;;
48881;SDS011;57063;51.406;-2.402;2023-03-17T17:41:38;16.20;;;2.78;;
48881;SDS011;57063;51.406;-2.402;2023-03-17T17:44:08;18.33;;;2.75;;
48881;SDS011;57063;51.406;-2.402;2023-03-17T17:46:39;14.48;;;3.42;;
48881;SDS011;57063;51.406;-2.402;2023-03-17T17:49:09;17.90;;;2.53;;
48881;SDS011;57063;51.406;-2.402;2023-03-17T17:51:37;16.08;;;2.75;;
48881;SDS011;57063;51.406;-2.402;2023-03-17T17:54:03;16.95;;;2.63;;
48881;SDS011;57063;51.406;-2.402;2023-03-17T17:56:29;18.73;;;2.60;;
48881;SDS011;57063;51.406;-2.402;2023-03-17T17:59:00;13.52;;;2.17;;
48881;SDS011;57063;51.406;-2.402;2023-03-17T18:08:09;20.30;;;2.70;;
48881;SDS011;57063;51.406;-2.402;2023-03-17T18:10:46;13.48;;;2.08;;
48881;SDS011;57063;51.406;-2.402;2023-03-17T18:13:21;15.73;;;3.83;;
48881;SDS011;57063;51.406;-2.402;2023-03-17T18:16:16;17.98;;;2.70;;
48881;SDS011;57063;51.406;-2.402;2023-03-17T18:18:48;24.42;;;3.75;;
48881;SDS011;57063;51.406;-2.402;2023-03-17T18:21:18;17.77;;;3.08;;
48881;SDS011;57063;51.406;-2.402;2023-03-17T18:23:47;16.02;;;2.85;;
48881;SDS011;57063;51.406;-2.402;2023-03-17T18:26:56;16.55;;;3.70;;
48881;SDS011;57063;51.406;-2.402;2023-03-17T18:29:52;20.20;;;3.20;;
48881;SDS011;57063;51.406;-2.402;2023-03-17T19:56:18;15.52;;;3.50;;
48881;SDS011;57063;51.406;-2.402;2023-03-17T19:59:03;22.48;;;3.90;;
48881;SDS011;57063;51.406;-2.402;2023-03-17T20:02:01;19.63;;;4.25;;
48881;SDS011;57063;51.406;-2.402;2023-03-17T20:04:33;18.17;;;3.30;;
48881;SDS011;57063;51.406;-2.402;2023-03-17T20:06:58;18.38;;;3.95;;
48881;SDS011;57063;51.406;-2.402;2023-03-17T20:09:25;13.68;;;3.65;;
48881;SDS011;57063;51.406;-2.402;2023-03-17T20:12:11;25.42;;;5.78;;
48881;SDS011;57063;51.406;-2.402;2023-03-17T20:14:37;28.48;;;6.82;;
48881;SDS011;57063;51.406;-2.402;2023-03-17T20:17:02;25.40;;;5.72;;
48881;SDS011;57063;51.406;-2.402;2023-03-17T20:19:33;27.08;;;5.43;;
48881;SDS011;57063;51.406;-2.402;2023-03-17T20:22:12;18.48;;;5.18;;
48881;SDS011;57063;51.406;-2.402;2023-03-17T20:24:38;26.38;;;6.05;;
48881;SDS011;57063;51.406;-2.402;2023-03-17T20:27:04;25.48;;;5.85;;
48881;SDS011;57063;51.406;-2.402;2023-03-17T20:29:31;20.67;;;6.53;;
48881;SDS011;57063;51.406;-2.402;2023-03-17T20:31:57;18.92;;;6.35;;
48881;SDS011;57063;51.406;-2.402;2023-03-17T20:34:26;15.90;;;5.65;;
48881;SDS011;57063;51.406;-2.402;2023-03-17T20:36:51;21.67;;;6.75;;
48881;SDS011;57063;51.406;-2.402;2023-03-17T20:39:16;20.00;;;5.88;;
48881;SDS011;57063;51.406;-2.402;2023-03-17T20:41:46;18.75;;;5.15;;
48881;SDS011;57063;51.406;-2.402;2023-03-17T20:44:12;20.58;;;5.75;;
48881;SDS011;57063;51.406;-2.402;2023-03-17T20:46:38;18.45;;;4.90;;
48881;SDS011;57063;51.406;-2.402;2023-03-17T20:49:03;20.77;;;5.88;;
48881;SDS011;57063;51.406;-2.402;2023-03-17T20:51:30;20.52;;;5.85;;
48881;SDS011;57063;51.406;-2.402;2023-03-17T20:53:56;19.77;;;4.93;;
48881;SDS011;57063;51.406;-2.402;2023-03-17T20:56:22;12.15;;;5.05;;
48881;SDS011;57063;51.406;-2.402;2023-03-17T20:58:50;15.48;;;4.30;;
48881;SDS011;57063;51.406;-2.402;2023-03-17T21:01:17;18.92;;;4.85;;
48881;SDS011;57063;51.406;-2.402;2023-03-17T21:03:44;21.02;;;5.90;;
48881;SDS011;57063;51.406;-2.402;2023-03-17T21:06:11;17.77;;;5.68;;
48881;SDS011;57063;51.406;-2.402;2023-03-17T21:08:38;14.75;;;5.38;;
48881;SDS011;57063;51.406;-2.402;2023-03-17T21:11:04;18.65;;;5.38;;
48881;SDS011;57063;51.406;-2.402;2023-03-17T21:13:32;16.35;;;5.95;;
48881;SDS011;57063;51.406;-2.402;2023-03-17T21:15:58;12.40;;;5.28;;
48881;SDS011;57063;51.406;-2.402;2023-03-17T21:18:24;17.65;;;5.43;;
48881;SDS011;57063;51.406;-2.402;2023-03-17T21:20:51;16.55;;;5.65;;
48881;SDS011;57063;51.406;-2.402;2023-03-17T21:23:17;23.27;;;6.82;;
48881;SDS011;57063;51.406;-2.402;2023-03-17T21:25:42;15.60;;;6.25;;
48881;SDS011;57063;51.406;-2.402;2023-03-17T21:28:08;13.43;;;5.63;;
48881;SDS011;57063;51.406;-2.402;2023-03-17T21:30:35;17.17;;;5.80;;
48881;SDS011;57063;51.406;-2.402;2023-03-17T21:33:01;15.60;;;6.50;;
48881;SDS011;57063;51.406;-2.402;2023-03-17T21:35:27;18.92;;;5.82;;
48881;SDS011;57063;51.406;-2.402;2023-03-17T21:37:54;17.33;;;5.95;;
48881;SDS011;57063;51.406;-2.402;2023-03-17T21:40:21;13.82;;;5.90;;
48881;SDS011;57063;51.406;-2.402;2023-03-17T21:42:47;15.45;;;5.63;;
48881;SDS011;57063;51.406;-2.402;2023-03-17T21:45:13;17.05;;;5.53;;
48881;SDS011;57063;51.406;-2.402;2023-03-17T21:47:38;18.08;;;5.35;;
48881;SDS011;57063;51.406;-2.402;2023-03-17T21:50:05;16.65;;;5.85;;
48881;SDS011;57063;51.406;-2.402;2023-03-17T21:52:31;18.92;;;5.50;;
48881;SDS011;57063;51.406;-2.402;2023-03-17T21:54:56;23.05;;;5.22;;
48881;SDS011;57063;51.406;-2.402;2023-03-17T21:57:22;12.70;;;4.60;;
48881;SDS011;57063;51.406;-2.402;2023-03-17T21:59:48;17.90;;;5.00;;
48881;SDS011;57063;51.406;-2.402;2023-03-17T22:02:13;14.02;;;4.25;;
48881;SDS011;57063;51.406;-2.402;2023-03-17T22:04:41;18.60;;;5.60;;
48881;SDS011;57063;51.406;-2.402;2023-03-17T22:07:07;13.10;;;4.43;;
48881;SDS011;57063;51.406;-2.402;2023-03-17T22:09:35;16.05;;;4.20;;
48881;SDS011;57063;51.406;-2.402;2023-03-17T22:12:01;19.63;;;5.47;;
48881;SDS011;57063;51.406;-2.402;2023-03-17T22:14:28;18.90;;;5.57;;
48881;SDS011;57063;51.406;-2.402;2023-03-17T22:16:54;18.60;;;4.45;;
48881;SDS011;57063;51.406;-2.402;2023-03-17T22:19:21;14.48;;;5.30;;
48881;SDS011;57063;51.406;-2.402;2023-03-17T22:21:47;16.23;;;4.53;;
48881;SDS011;57063;51.406;-2.402;2023-03-17T22:24:14;13.80;;;4.80;;
48881;SDS011;57063;51.406;-2.402;2023-03-17T22:26:39;17.38;;;5.32;;
48881;SDS011;57063;51.406;-2.402;2023-03-17T22:29:06;17.92;;;5.25;;
48881;SDS011;57063;51.406;-2.402;2023-03-17T22:31:32;18.15;;;5.47;;
48881;SDS011;57063;51.406;-2.402;2023-03-17T22:33:59;23.80;;;5.03;;
48881;SDS011;57063;51.406;-2.402;2023-03-17T22:36:26;14.45;;;4.93;;
48881;SDS011;57063;51.406;-2.402;2023-03-17T22:38:53;20.88;;;5.70;;
48881;SDS011;57063;51.406;-2.402;2023-03-17T22:41:20;15.60;;;4.78;;
48881;SDS011;57063;51.406;-2.402;2023-03-17T22:43:47;15.13;;;4.80;;
48881;SDS011;57063;51.406;-2.402;2023-03-17T22:46:13;19.40;;;4.57;;
48881;SDS011;57063;51.406;-2.402;2023-03-17T22:48:39;19.65;;;5.65;;
48881;SDS011;57063;51.406;-2.402;2023-03-17T22:51:06;21.65;;;4.85;;
48881;SDS011;57063;51.406;-2.402;2023-03-17T22:53:33;28.20;;;5.75;;
48881;SDS011;57063;51.406;-2.402;2023-03-17T22:55:59;20.63;;;5.50;;
48881;SDS011;57063;51.406;-2.402;2023-03-17T22:58:25;31.40;;;6.68;;
48881;SDS011;57063;51.406;-2.402;2023-03-17T23:00:51;20.50;;;5.50;;
48881;SDS011;57063;51.406;-2.402;2023-03-17T23:03:17;26.00;;;7.68;;
48881;SDS011;57063;51.406;-2.402;2023-03-17T23:05:44;21.98;;;6.93;;
48881;SDS011;57063;51.406;-2.402;2023-03-17T23:08:13;31.17;;;6.75;;
48881;SDS011;57063;51.406;-2.402;2023-03-17T23:10:40;20.40;;;6.45;;
48881;SDS011;57063;51.406;-2.402;2023-03-17T23:13:06;17.75;;;5.15;;
48881;SDS011;57063;51.406;-2.402;2023-03-17T23:15:32;26.15;;;6.30;;
48881;SDS011;57063;51.406;-2.402;2023-03-17T23:17:58;12.20;;;5.85;;
48881;SDS011;57063;51.406;-2.402;2023-03-17T23:20:24;28.23;;;6.00;;
48881;SDS011;57063;51.406;-2.402;2023-03-17T23:22:50;22.98;;;6.28;;
48881;SDS011;57063;51.406;-2.402;2023-03-17T23:25:16;22.25;;;5.70;;
48881;SDS011;57063;51.406;-2.402;2023-03-17T23:27:42;21.63;;;6.50;;
48881;SDS011;57063;51.406;-2.402;2023-03-17T23:30:08;25.65;;;6.45;;
48881;SDS011;57063;51.406;-2.402;2023-03-17T23:32:35;19.58;;;6.65;;
48881;SDS011;57063;51.406;-2.402;2023-03-17T23:35:01;28.25;;;7.10;;
48881;SDS011;57063;51.406;-2.402;2023-03-17T23:37:27;27.20;;;6.88;;
48881;SDS011;57063;51.406;-2.402;2023-03-17T23:39:52;24.30;;;6.65;;
48881;SDS011;57063;51.406;-2.402;2023-03-17T23:42:19;24.17;;;7.18;;
48881;SDS011;57063;51.406;-2.402;2023-03-17T23:44:45;23.60;;;8.73;;
48881;SDS011;57063;51.406;-2.402;2023-03-17T23:47:10;23.90;;;8.23;;
48881;SDS011;57063;51.406;-2.402;2023-03-17T23:49:36;31.95;;;8.60;;
48881;SDS011;57063;51.406;-2.402;2023-03-17T23:52:02;23.98;;;8.32;;
48881;SDS011;57063;51.406;-2.402;2023-03-17T23:54:28;26.13;;;8.15;;
48881;SDS011;57063;51.406;-2.402;2023-03-17T23:56:54;29.08;;;8.52;;
48881;SDS011;57063;51.406;-2.402;2023-03-17T23:59:20;22.13;;;7.80;;
